• Join FlightAware (Why Join?)
  • Login
  • US Flag 
01:54PM EDT


 

Airport Tracker/Info


-or-


 

Live Flight TrackerFlight Track Log ✈ UAL395 ✈ 28-Apr-2013 ✈ KIAH - KSFO

Flight Track Log - Related Links

Times and Time Zones

All times are in EDT time to prevent confusion due to time zone crossing. See the UAL395 flight status page for this flight to view local times or setup timezone preferences in your user account.

Time Position Orientation Groundspeed Altitude Reporting Facility
EDT Latitude Longitude Course Direction KTS MPH feet Rate Location/Type
02:24PM 29.9786 -95.2981 334° Northwest 180 207 700  Level Houston Center
02:25PM 30.0203 -95.2736 27° Northeast 242 278 2,600 1,680 Climbing Houston Center
02:26PM 30.0889 -95.2831 353° North 252 290 3,900 1,800 Climbing Houston Center
02:27PM 30.3892 -95.5718 334° Northwest  Level FlightAware Approximate
02:27PM 30.1644 -95.2944 353° North 271 312 6,300  Level Houston Center
02:28PM 30.4921 -95.6289 334° Northwest  Level FlightAware Approximate
02:28PM 30.2500 -95.3281 341° North 288 331 10,100  Level Houston Center
02:29PM 30.5955 -95.6845 334° Northwest  Level FlightAware Approximate
02:29PM 30.2975 -95.3803 316° Northwest 291 335 12,400  Level Houston Center
02:30PM 30.3606 -95.4508 316° Northwest 308 354 14,300 1,980 Climbing Houston Center
02:31PM 30.4289 -95.5286 316° Northwest 336 387 16,500 2,700 Climbing Houston Center
02:32PM 30.5106 -95.6236 315° West 345 397 19,900 2,760 Climbing Houston Center
02:33PM 30.5928 -95.6833 328° Northwest 352 405 22,300 1,920 Climbing Houston Center
02:34PM 30.6839 -95.7311 336° Northwest 359 413 23,900 1,620 Climbing Houston Center
02:35PM 30.7903 -95.7883 335° Northwest 368 423 25,700 1,200 Climbing Houston Center
02:36PM 30.8892 -95.8417 335° Northwest 383 441 26,500 720 Climbing Houston Center
02:37PM 30.9992 -95.9003 335° Northwest 420 483 27,300 1,080 Climbing Houston Center
02:38PM 31.1119 -95.9600 336° Northwest 439 505 28,800 1,380 Climbing Houston Center
02:38PM 31.1383 -95.9717 339° North 428 493 29,100 1,020 Climbing Fort Worth Center
02:39PM 31.2600 -96.0208 341° North 444 511 30,100 1,200 Climbing Fort Worth Center
02:40PM 31.3794 -96.0678 341° North 455 524 31,500 1,320 Climbing Fort Worth Center
02:41PM 31.4989 -96.1122 342° North 455 524 32,800 1,260 Climbing Fort Worth Center
02:42PM 31.6183 -96.1619 340° North 456 525 34,100 1,140 Climbing Fort Worth Center
02:43PM 31.7419 -96.2067 343° North 456 525 35,100 900 Climbing Fort Worth Center
02:44PM 31.8697 -96.2586 341° North 441 507 36,000 420 Climbing Fort Worth Center
02:45PM 31.9914 -96.3039 342° North 449 517 36,000  Level Fort Worth Center
02:46PM 32.0961 -96.3492 340° North 449 517 36,000  Level Fort Worth Center
02:47PM 32.2072 -96.4067 336° Northwest 444 511 36,000  Level Fort Worth Center
02:48PM 32.2956 -96.5039 317° Northwest 435 501 36,000  Level Fort Worth Center
02:49PM 32.3819 -96.6017 316° Northwest 435 501 36,000  Level Fort Worth Center
02:50PM 32.4703 -96.6994 317° Northwest 427 491 36,000  Level Fort Worth Center
02:51PM 32.5564 -96.7997 316° Northwest 427 491 36,000  Level Fort Worth Center
02:52PM 32.6508 -96.9075 316° Northwest 435 501 36,000  Level Fort Worth Center
02:53PM 32.7389 -97.0083 316° Northwest 435 501 36,000  Level Fort Worth Center
02:54PM 32.8289 -97.1094 317° Northwest 435 501 36,000  Level Fort Worth Center
02:55PM 32.9167 -97.2131 315° West 435 501 36,000  Level Fort Worth Center
02:56PM 32.9983 -97.3194 312° West 430 495 36,000  Level Fort Worth Center
02:57PM 33.0775 -97.4183 314° West 442 509 36,000  Level Fort Worth Center
02:58PM 33.1611 -97.5250 313° West 442 509 36,000  Level Fort Worth Center
02:59PM 33.2422 -97.6319 312° West 442 509 36,000  Level Fort Worth Center
03:00PM 33.3361 -97.7492 314° West 442 509 36,000  Level Fort Worth Center
03:01PM 33.4192 -97.8564 313° West 434 499 36,000  Level Fort Worth Center
03:02PM 33.4917 -97.9739 307° West 440 506 36,000  Level Fort Worth Center
03:03PM 33.5536 -98.0989 301° West 445 512 36,000  Level Fort Worth Center
03:04PM 33.6178 -98.2217 302° West 434 499 36,000  Level Fort Worth Center
03:05PM 33.6814 -98.3469 301° West 434 499 36,000  Level Fort Worth Center
03:06PM 33.7453 -98.4700 302° West 440 506 36,000  Level Fort Worth Center
03:07PM 33.8047 -98.5958 300° West 440 506 36,000  Level Fort Worth Center
03:08PM 33.8703 -98.7192 303° West 435 501 36,000  Level Fort Worth Center
03:09PM 33.9294 -98.8403 301° West 429 494 36,000  Level Fort Worth Center
03:10PM 33.9925 -98.9617 302° West 429 494 36,000  Level Fort Worth Center
03:11PM 34.0536 -99.0856 301° West 435 501 36,000  Level Fort Worth Center
03:12PM 34.1144 -99.2122 300° West 440 506 36,000  Level Fort Worth Center
03:13PM 34.1772 -99.3389 301° West 440 506 36,000  Level Fort Worth Center
03:14PM 34.2400 -99.4658 301° West 435 501 36,000  Level Fort Worth Center
03:15PM 34.3003 -99.5906 300° West 435 501 36,000  Level Fort Worth Center
03:17PM 34.4186 -99.8292 301° West 438 504 36,000  Level Albuquerque Center
03:18PM 34.4808 -99.9572 301° West 438 504 36,000  Level Albuquerque Center
03:19PM 34.5428 -100.0839 301° West 436 502 36,000  Level Albuquerque Center
03:20PM 34.6022 -100.1972 303° West 436 502 36,000  Level Albuquerque Center
03:21PM 34.6722 -100.3347 302° West 437 503 36,000  Level Albuquerque Center
03:22PM 34.7428 -100.4722 302° West 437 503 36,000  Level Albuquerque Center
03:23PM 34.8069 -100.5989 302° West 438 504 36,000  Level Albuquerque Center
03:24PM 34.8711 -100.7250 302° West 440 506 36,000  Level Albuquerque Center
03:25PM 34.9350 -100.8522 302° West 441 507 36,000  Level Albuquerque Center
03:26PM 34.9836 -100.9906 293° West 442 509 36,000  Level Albuquerque Center
03:27PM 35.0375 -101.1617 291° West 449 517 36,000  Level Albuquerque Center
03:28PM 35.0817 -101.3039 291° West 449 517 36,000  Level Albuquerque Center
03:29PM 35.1242 -101.4403 291° West 453 521 36,000  Level Albuquerque Center
03:31PM 35.1686 -101.5853 291° West 454 522 36,000  Level Albuquerque Center
03:32PM 35.2181 -101.7522 290° West 453 521 36,000  Level Albuquerque Center
03:33PM 35.2619 -101.8992 290° West 455 524 36,000  Level Albuquerque Center
03:34PM 35.3025 -102.0392 290° West 454 522 36,000  Level Albuquerque Center
03:35PM 35.3461 -102.1850 290° West 455 524 36,000  Level Albuquerque Center
03:36PM 35.3975 -102.3586 290° West 453 521 36,000  Level Albuquerque Center
03:37PM 35.4408 -102.5019 290° West 450 518 36,000  Level Albuquerque Center
03:38PM 35.4847 -102.6528 290° West 452 520 36,000  Level Albuquerque Center
03:39PM 35.5283 -102.7986 290° West 453 521 36,000  Level Albuquerque Center
03:40PM 35.5725 -102.9444 290° West 453 521 36,000  Level Albuquerque Center
03:41PM 35.6128 -103.0889 289° West 447 514 36,000  Level Albuquerque Center
03:42PM 35.6556 -103.2350 290° West 450 518 36,000  Level Albuquerque Center
03:43PM 35.6969 -103.3811 289° West 451 519 36,000  Level Albuquerque Center
03:44PM 35.7478 -103.5533 290° West 455 524 36,000  Level Albuquerque Center
03:45PM 35.7889 -103.6994 289° West 452 520 36,000  Level Albuquerque Center
03:46PM 35.8308 -103.8478 289° West 455 524 36,000  Level Albuquerque Center
03:47PM 35.8719 -103.9964 289° West 457 526 36,000  Level Albuquerque Center
03:48PM 35.9133 -104.1444 289° West 456 525 36,000  Level Albuquerque Center
03:49PM 35.9542 -104.2922 289° West 455 524 36,000  Level Albuquerque Center
03:50PM 36.0022 -104.4661 289° West 456 525 36,000  Level Albuquerque Center
03:51PM 36.0450 -104.6139 290° West 455 524 36,000  Level Albuquerque Center
03:52PM 36.0853 -104.7622 289° West 454 522 36,000  Level Albuquerque Center
03:53PM 36.1244 -104.9108 288° West 453 521 36,000  Level Albuquerque Center
03:54PM 36.1644 -105.0603 288° West 454 522 36,000  Level Albuquerque Center
03:55PM 36.2033 -105.2089 288° West 453 521 36,000  Level Albuquerque Center
03:56PM 36.2425 -105.3564 288° West 450 518 36,000  Level Albuquerque Center
03:57PM 36.2903 -105.5272 289° West 448 516 36,000  Level Albuquerque Center
03:58PM 36.3281 -105.6731 288° West 446 513 36,000  Level Albuquerque Center
03:59PM 36.3669 -105.8200 288° West 448 516 36,000  Level Albuquerque Center
04:01PM 36.4058 -105.9678 288° West 451 519 36,000  Level Albuquerque Center
04:02PM 36.4483 -106.1286 288° West 450 518 36,000  Level Albuquerque Center
04:03PM 36.4839 -106.2700 287° West 449 517 36,000  Level Albuquerque Center
04:04PM 36.5264 -106.4358 288° West 450 518 36,000  Level Albuquerque Center
04:05PM 36.5642 -106.5767 289° West 449 517 36,000  Level Albuquerque Center
04:05PM 36.5925 -106.6944 287° West 450 518 36,000  Level Denver Center
04:06PM 36.6222 -106.8117 288° West 450 518 36,000  Level Denver Center
04:07PM 36.6686 -107.0006 287° West 446 513 36,000  Level Denver Center
04:08PM 36.7033 -107.1419 287° West 447 514 36,000  Level Denver Center
04:09PM 36.7450 -107.3075 287° West 448 516 36,000  Level Denver Center
04:11PM 36.7803 -107.4489 287° West 448 516 36,000  Level Denver Center
04:12PM 36.8269 -107.6381 287° West 448 516 36,000  Level Denver Center
04:13PM 36.8611 -107.7803 287° West 449 517 36,000  Level Denver Center
04:14PM 36.9006 -107.9464 287° West 446 513 36,000  Level Denver Center
04:15PM 36.9356 -108.0892 287° West 448 516 36,000  Level Denver Center
04:16PM 36.9744 -108.2553 286° West 448 516 36,000  Level Denver Center
04:17PM 37.0092 -108.3994 287° West 451 519 36,000  Level Denver Center
04:18PM 37.0472 -108.5636 286° West 444 511 36,000  Level Denver Center
04:19PM 37.0808 -108.7044 287° West 443 510 36,000  Level Denver Center
04:20PM 37.1194 -108.8697 286° West 444 511 36,000  Level Denver Center
04:21PM 37.1514 -109.0094 286° West 440 506 36,000  Level Denver Center
04:22PM 37.1889 -109.1756 286° West 442 509 36,000  Level Denver Center
04:23PM 37.2206 -109.3169 286° West 443 510 36,000  Level Denver Center
04:24PM 37.2583 -109.4806 286° West 439 505 36,000  Level Denver Center
04:25PM 37.2894 -109.6236 285° West 443 510 36,000  Level Denver Center
04:26PM 37.3275 -109.7867 286° West 438 504 36,000  Level Denver Center
04:27PM 37.3586 -109.9294 285° West 442 509 36,000  Level Denver Center
04:28PM 37.3958 -110.0944 286° West 441 507 36,000  Level Denver Center
04:29PM 37.4281 -110.2453 285° West 440 506 36,000  Level Denver Center
04:30PM 37.4603 -110.3942 285° West 442 509 36,000  Level Denver Center
04:31PM 37.4917 -110.5431 285° West 441 507 36,000  Level Denver Center
04:32PM 37.5247 -110.6914 286° West 440 506 36,000  Level Denver Center
04:33PM 37.5569 -110.8403 285° West 441 507 36,000  Level Denver Center
04:35PM 37.5947 -111.0189 285° West 441 507 36,000  Level Denver Center
04:36PM 37.6253 -111.1678 285° West 440 506 36,000  Level Denver Center
04:36PM 37.6556 -111.3167 284° West 439 505 36,000  Level Salt Lake Center
04:38PM 37.6867 -111.4650 285° West 439 505 36,000  Level Salt Lake Center
04:39PM 37.7183 -111.6136 285° West 439 505 36,000  Level Salt Lake Center
04:40PM 37.7461 -111.7608 283° West 436 502 36,000  Level Salt Lake Center
04:41PM 37.7775 -111.9092 285° West 437 503 36,000  Level Salt Lake Center
04:42PM 37.8069 -112.0578 284° West 438 504 36,000  Level Salt Lake Center
04:43PM 37.8369 -112.2064 284° West 440 506 36,000  Level Salt Lake Center
04:44PM 37.8731 -112.3861 284° West 442 509 36,000  Level Salt Lake Center
04:45PM 37.9028 -112.5350 284° West 441 507 36,000  Level Salt Lake Center
04:46PM 37.9317 -112.6833 284° West 441 507 36,000  Level Salt Lake Center
04:47PM 37.9603 -112.8331 284° West 442 509 36,000  Level Salt Lake Center
04:48PM 37.9889 -112.9825 284° West 442 509 36,000  Level Salt Lake Center
04:49PM 38.0228 -113.1625 283° West 441 507 36,000  Level Salt Lake Center
04:50PM 38.0503 -113.3122 283° West 440 506 36,000  Level Salt Lake Center
04:51PM 38.0794 -113.4617 284° West 439 505 36,000  Level Salt Lake Center
04:52PM 38.1069 -113.6117 283° West 438 504 36,000  Level Salt Lake Center
04:53PM 38.1336 -113.7603 283° West 435 501 36,000  Level Salt Lake Center
04:54PM 38.1631 -113.9078 284° West 433 498 36,000  Level Salt Lake Center
04:55PM 38.1900 -114.0575 283° West 435 501 36,000  Level Salt Lake Center
04:56PM 38.2222 -114.2369 283° West 436 502 36,000  Level Salt Lake Center
04:57PM 38.2478 -114.3847 282° West 432 497 36,000  Level Salt Lake Center
04:58PM 38.2425 -114.5408 268° West 442 509 36,000  Level Salt Lake Center
04:59PM 38.2419 -114.6964 270° West 444 511 36,000  Level Salt Lake Center
05:00PM 38.2356 -114.8514 267° West 441 507 36,000  Level Salt Lake Center
05:01PM 38.2286 -115.0064 267° West 443 510 36,000  Level Salt Lake Center
05:02PM 38.2222 -115.1622 267° West 443 510 36,000  Level Salt Lake Center
05:03PM 38.2150 -115.3425 267° West 440 506 36,000  Level Salt Lake Center
05:04PM 38.2081 -115.4975 267° West 439 505 36,000  Level Salt Lake Center
05:05PM 38.2025 -115.6536 267° West 441 507 36,000  Level Salt Lake Center
05:06PM 38.1950 -115.8094 267° West 442 509 36,000  Level Salt Lake Center
05:07PM 38.1869 -115.9642 266° West 442 509 36,000  Level Salt Lake Center
05:08PM 38.1800 -116.1192 267° West 440 506 36,000  Level Salt Lake Center
05:09PM 38.1722 -116.2756 266° West 442 509 36,000  Level Salt Lake Center
05:10PM 38.1647 -116.4317 267° West 442 509 36,000  Level Salt Lake Center
05:11PM 38.1553 -116.6169 266° West 440 506 36,000  Level Salt Lake Center
05:12PM 38.1472 -116.7725 266° West 441 507 36,000  Level Salt Lake Center
05:13PM 38.1392 -116.9258 266° West 436 502 36,000  Level Salt Lake Center
05:15PM 38.1306 -117.0736 266° West 424 488 36,000  Level Salt Lake Center
05:16PM 38.1217 -117.2258 266° West 424 488 36,000  Level Salt Lake Center
05:17PM 38.0939 -117.3861 258° West 429 494 36,000  Level Salt Lake Center
05:18PM 38.0597 -117.5319 253° West 430 495 36,000  Level Salt Lake Center
05:19PM 38.0258 -117.6783 254° West 433 498 36,000  Level Salt Lake Center
05:20PM 37.9958 -117.8258 256° West 432 497 36,000  Level Salt Lake Center
05:21PM 37.9817 -117.9772 263° West 431 496 36,000  Level Salt Lake Center
05:22PM 37.9664 -118.1283 263° West 431 496 36,000  Level Salt Lake Center
05:23PM 37.9472 -118.3083 262° West 430 495 36,000  Level Salt Lake Center
05:24PM 37.9303 -118.4583 262° West 431 496 36,000  Level Salt Lake Center
05:25PM 37.9131 -118.6089 262° West 430 495 36,000  Level Oakland Center
05:26PM 37.8953 -118.7578 261° West 428 493 36,000  Level Oakland Center
05:27PM 37.8769 -118.9364 263° West 426 490 36,000  Level Oakland Center
05:28PM 37.8611 -119.0722 262° West 429 494 36,000  Level Oakland Center
05:29PM 37.8422 -119.2242 261° West 437 503 36,000  Level Oakland Center
05:31PM 37.8081 -119.5242 262° West 431 496 36,000  Level Oakland Center
05:32PM 37.7903 -119.6742 262° West 433 498 36,000 -120 Level Oakland Center
05:33PM 37.7703 -119.8550 262° West 433 498 35,800 -720 Descending Oakland Center
05:34PM 37.7517 -120.0050 261° West 432 497 34,600 -1,860 Descending Oakland Center
05:35PM 37.7325 -120.1592 261° West 437 503 32,000 -2,400 Descending Oakland Center
05:36PM 37.7117 -120.3133 260° West 442 509 29,800 -2,160 Descending Oakland Center
05:37PM 37.6922 -120.4608 261° West 430 495 27,600 -1,620 Descending Oakland Center
05:38PM 37.6744 -120.5994 261° West 405 466 26,500 -1,680 Descending Oakland Center
05:39PM 37.6500 -120.7667 260° West 366 421 24,000 -2,160 Descending Northern Cal TRACON
05:40PM 37.6333 -120.8833 260° West 361 415 21,900 -2,160 Descending Northern Cal TRACON
05:41PM 37.6167 -121.0167 261° West 354 407 19,700 -1,980 Descending Northern Cal TRACON
05:42PM 37.6167 -121.1167 270° West 349 402 18,000 -1,740 Descending Northern Cal TRACON
05:43PM 37.6000 -121.2333 260° West 344 396 16,300 -1,740 Descending Northern Cal TRACON
05:44PM 37.5833 -121.3500 260° West 330 380 14,600 -1,680 Descending Northern Cal TRACON
05:45PM 37.5667 -121.4667 260° West 323 372 13,000 -1,620 Descending Northern Cal TRACON
05:46PM 37.5500 -121.5667 258° West 318 366 11,400 -1,380 Descending Northern Cal TRACON
05:47PM 37.5333 -121.6833 260° West 303 349 10,300 -1,140 Descending Northern Cal TRACON
05:48PM 37.5167 -121.7833 258° West 288 331 9,200 -960 Descending Northern Cal TRACON
05:49PM 37.5000 -121.8667 256° West 261 300 8,400 -600 Descending Northern Cal TRACON
05:50PM 37.4833 -121.9333 253° West 218 251 8,000 -660 Descending Northern Cal TRACON
05:51PM 37.5000 -122.0000 288° West 199 229 7,100 -1,200 Descending Northern Cal TRACON
05:52PM 37.5167 -122.0667 288° West 198 228 5,700 -1,440 Descending Northern Cal TRACON
05:53PM 37.5333 -122.1333 288° West 199 229 4,300 -1,380 Descending Northern Cal TRACON
05:54PM 37.5667 -122.2000 302° West 197 227 3,000 -1,320 Descending Northern Cal TRACON